Time;durP1;ratioP1;P1;durP2;ratioP2;P2;SDS_P1;SDS_P2;PMS_P1;PMS_P2;Temp;Humidity;BMP_temperature;BMP_pressure;BME280_temperature;BME280_humidity;BME280_pressure;Samples;Min_cycle;Max_cycle;Signal;HPM_P1;HPM_P2
2021/12/09 00:00:26;;;;;;;;;;;2.20;35.20;;;;;;4193100;28;20035;-85
2021/12/09 00:02:30;;;;;;;;;;;2.20;35.10;;;;;;4157276;28;19977;-85
2021/12/09 00:05:04;;;;;;;;;;;2.20;35.90;;;;;;4161525;28;19976;-85
2021/12/09 00:07:06;;;;;;;;;;;2.20;36.00;;;;;;4160946;28;19994;-85
2021/12/09 00:09:13;;;;;;;;;;;2.10;34.90;;;;;;4165609;28;19970;-85
2021/12/09 00:11:15;;;;;;;;;;;2.10;34.50;;;;;;4162831;28;20007;-85
2021/12/09 00:13:19;;;;;;;;;;;2.10;34.40;;;;;;4161272;28;19984;-85
2021/12/09 00:15:21;;;;;;;;;;;2.10;34.20;;;;;;4194348;28;19975;-85
2021/12/09 00:17:23;;;;;;;;;;;2.00;33.50;;;;;;4158553;28;19993;-85
2021/12/09 00:19:25;;;;;;;;;;;2.00;33.20;;;;;;4164214;28;19970;-85
2021/12/09 00:21:27;;;;;;;;;;;1.90;31.30;;;;;;4158249;28;20446;-85
2021/12/09 00:23:29;;;;;;;;;;;1.90;29.80;;;;;;4163204;28;20001;-86
2021/12/09 00:25:31;;;;;;;;;;;1.90;30.70;;;;;;4163961;28;19977;-85
2021/12/09 00:27:33;;;;;;;;;;;1.90;29.90;;;;;;4161819;28;19999;-85
2021/12/09 00:29:35;;;;;;;;;;;1.90;29.80;;;;;;4159488;28;20029;-85
2021/12/09 00:31:37;;;;;;;;;;;1.80;30.00;;;;;;4161889;28;19981;-85
2021/12/09 00:33:44;;;;;;;;;;;1.80;28.80;;;;;;4161670;28;20008;-86
2021/12/09 00:35:57;;;;;;;;;;;1.80;28.70;;;;;;4177412;28;19973;-85
2021/12/09 00:38:06;;;;;;;;;;;1.80;28.50;;;;;;4193084;28;19992;-85
2021/12/09 00:40:08;;;;;;;;;;;1.80;29.50;;;;;;4163391;28;20453;-85
2021/12/09 00:42:15;;;;;;;;;;;1.80;27.70;;;;;;4155126;28;19973;-86
2021/12/09 00:44:17;;;;;;;;;;;1.80;27.80;;;;;;4161745;28;20005;-86
2021/12/09 00:46:19;;;;;;;;;;;1.80;27.60;;;;;;4161532;28;20070;-85
2021/12/09 00:48:20;;;;;;;;;;;1.80;27.80;;;;;;4159252;28;19985;-85
2021/12/09 00:50:22;;;;;;;;;;;1.70;27.90;;;;;;4159530;28;20103;-86
2021/12/09 00:52:24;;;;;;;;;;;1.80;28.40;;;;;;4159824;28;19989;-86
2021/12/09 00:54:26;;;;;;;;;;;1.80;29.00;;;;;;4155890;28;20056;-85
2021/12/09 00:56:28;;;;;;;;;;;1.70;27.80;;;;;;4164463;28;20465;-85
2021/12/09 00:58:43;;;;;;;;;;;1.80;27.90;;;;;;4162721;28;19977;-86
2021/12/09 01:00:45;;;;;;;;;;;1.70;26.30;;;;;;4162862;28;19985;-86
2021/12/09 01:02:49;;;;;;;;;;;1.70;26.30;;;;;;4161765;28;20056;-87
2021/12/09 01:05:05;;;;;;;;;;;1.70;25.70;;;;;;4157931;28;19983;-85
2021/12/09 01:07:07;;;;;;;;;;;1.70;26.00;;;;;;4159690;28;19995;-84
2021/12/09 01:09:09;;;;;;;;;;;1.70;26.30;;;;;;4159295;28;19977;-85
2021/12/09 01:11:12;;;;;;;;;;;1.80;25.80;;;;;;4158571;28;19977;-86
2021/12/09 01:13:14;;;;;;;;;;;1.70;26.10;;;;;;4161841;28;20001;-85
2021/12/09 01:15:16;;;;;;;;;;;1.80;26.20;;;;;;4157647;28;19974;-85
2021/12/09 01:17:20;;;;;;;;;;;1.80;26.60;;;;;;4157728;28;20000;-85
2021/12/09 01:19:22;;;;;;;;;;;1.80;26.90;;;;;;4161419;28;19970;-86
2021/12/09 01:21:23;;;;;;;;;;;1.80;27.00;;;;;;4160495;28;19993;-86
2021/12/09 01:23:25;;;;;;;;;;;1.90;26.90;;;;;;4158029;28;19969;-85
2021/12/09 01:25:27;;;;;;;;;;;1.90;27.50;;;;;;4158817;28;19985;-85
2021/12/09 01:27:31;;;;;;;;;;;1.90;27.60;;;;;;4155119;28;19993;-85
2021/12/09 01:29:37;;;;;;;;;;;1.90;28.20;;;;;;4161627;28;19973;-86
2021/12/09 01:31:40;;;;;;;;;;;1.90;27.70;;;;;;4163867;28;19973;-85
2021/12/09 01:33:41;;;;;;;;;;;1.90;28.60;;;;;;4156863;28;19995;-85
2021/12/09 01:35:47;;;;;;;;;;;1.90;28.30;;;;;;4159513;28;19988;-85
2021/12/09 01:37:54;;;;;;;;;;;1.90;28.10;;;;;;4159605;28;20032;-86
2021/12/09 01:39:55;;;;;;;;;;;1.90;28.20;;;;;;4161721;28;20009;-85
2021/12/09 01:41:58;;;;;;;;;;;1.90;28.30;;;;;;4163564;28;20208;-85
2021/12/09 01:44:00;;;;;;;;;;;1.90;28.90;;;;;;4164491;28;19984;-86
2021/12/09 01:46:14;;;;;;;;;;;1.80;27.80;;;;;;4159493;28;20012;-85
2021/12/09 01:48:18;;;;;;;;;;;1.80;27.90;;;;;;4157008;28;19989;-85
2021/12/09 01:50:20;;;;;;;;;;;1.80;28.00;;;;;;4158577;28;20013;-85
2021/12/09 01:52:22;;;;;;;;;;;1.80;28.20;;;;;;4154795;28;19974;-86
2021/12/09 01:54:24;;;;;;;;;;;1.80;28.00;;;;;;4167076;28;19977;-85
2021/12/09 01:56:27;;;;;;;;;;;1.70;27.80;;;;;;4161734;28;19973;-86
2021/12/09 01:58:29;;;;;;;;;;;1.70;27.70;;;;;;4160550;28;19974;-86
2021/12/09 02:00:31;;;;;;;;;;;1.70;28.00;;;;;;4158993;28;19996;-86
2021/12/09 02:02:41;;;;;;;;;;;1.70;27.90;;;;;;4162261;28;20072;-85
2021/12/09 02:04:58;;;;;;;;;;;1.60;27.40;;;;;;4160329;28;19951;-86
2021/12/09 02:07:00;;;;;;;;;;;1.60;28.40;;;;;;4166464;28;19993;-85
2021/12/09 02:09:02;;;;;;;;;;;1.60;27.50;;;;;;4165305;28;20310;-85
2021/12/09 02:11:04;;;;;;;;;;;1.50;26.30;;;;;;4161346;28;19984;-85
2021/12/09 02:13:06;;;;;;;;;;;1.50;27.00;;;;;;4161671;28;20060;-85
2021/12/09 02:15:08;;;;;;;;;;;1.50;25.70;;;;;;4161278;28;19962;-86
2021/12/09 02:17:12;;;;;;;;;;;1.40;25.30;;;;;;4166504;28;19989;-85
2021/12/09 02:19:14;;;;;;;;;;;1.40;24.20;;;;;;4161113;28;19976;-86
2021/12/09 02:21:21;;;;;;;;;;;1.40;24.10;;;;;;4163653;28;19989;-85
2021/12/09 02:23:23;;;;;;;;;;;1.30;22.60;;;;;;4180006;28;19970;-86
2021/12/09 02:25:24;;;;;;;;;;;1.30;22.30;;;;;;4163528;28;19977;-85
2021/12/09 02:27:33;;;;;;;;;;;1.20;21.50;;;;;;4165300;28;20087;-84
2021/12/09 02:29:37;;;;;;;;;;;1.20;21.30;;;;;;4164975;28;20045;-85
2021/12/09 02:31:41;;;;;;;;;;;1.10;19.70;;;;;;4167516;28;20065;-86
2021/12/09 02:33:42;;;;;;;;;;;1.10;19.20;;;;;;4166597;28;20003;-85
2021/12/09 02:35:44;;;;;;;;;;;1.10;19.10;;;;;;4167967;28;19969;-86
2021/12/09 02:37:49;;;;;;;;;;;1.10;18.70;;;;;;4195706;28;20626;-86
2021/12/09 02:39:58;;;;;;;;;;;1.00;19.50;;;;;;4160186;28;20060;-86
2021/12/09 02:42:05;;;;;;;;;;;1.00;18.70;;;;;;4174703;28;20476;-85
2021/12/09 02:44:08;;;;;;;;;;;1.00;18.50;;;;;;4166387;28;20384;-85
2021/12/09 02:46:11;;;;;;;;;;;1.00;18.30;;;;;;4162462;28;20096;-85
2021/12/09 02:48:18;;;;;;;;;;;1.00;18.50;;;;;;4153747;28;19985;-85
2021/12/09 02:50:21;;;;;;;;;;;0.90;18.20;;;;;;4161810;28;19969;-86
2021/12/09 02:52:23;;;;;;;;;;;0.90;18.50;;;;;;4166808;28;20045;-86
2021/12/09 02:54:25;;;;;;;;;;;0.90;17.50;;;;;;4166036;28;19976;-85
2021/12/09 02:56:31;;;;;;;;;;;0.90;18.20;;;;;;4158438;28;20024;-86
2021/12/09 02:58:36;;;;;;;;;;;0.90;16.80;;;;;;4191835;28;20435;-86
2021/12/09 03:01:17;;;;;;;;;;;0.80;16.70;;;;;;4159794;28;19991;-86
2021/12/09 03:03:19;;;;;;;;;;;0.80;16.50;;;;;;4127923;28;19974;-86
2021/12/09 03:05:27;;;;;;;;;;;0.80;15.80;;;;;;4146227;28;20016;-86
2021/12/09 03:07:35;;;;;;;;;;;0.80;15.70;;;;;;4160767;28;20458;-86
2021/12/09 03:09:37;;;;;;;;;;;0.80;15.50;;;;;;4164351;28;19973;-86
2021/12/09 03:11:38;;;;;;;;;;;0.70;15.70;;;;;;4162608;28;20462;-86
2021/12/09 03:13:51;;;;;;;;;;;;;;;;;;;;;
2021/12/09 03:15:54;;;;;;;;;;;0.70;14.80;;;;;;4162139;28;19997;-86
2021/12/09 03:17:56;;;;;;;;;;;0.70;13.60;;;;;;4162336;28;19997;-85
2021/12/09 03:19:57;;;;;;;;;;;0.70;13.20;;;;;;4162888;28;20342;-86
2021/12/09 03:21:59;;;;;;;;;;;0.70;13.10;;;;;;4159741;28;20000;-86
2021/12/09 03:24:02;;;;;;;;;;;0.70;13.30;;;;;;4158683;28;19981;-87
2021/12/09 03:26:04;;;;;;;;;;;0.70;14.00;;;;;;4161262;28;19977;-87
2021/12/09 03:28:05;;;;;;;;;;;0.70;14.30;;;;;;4191486;28;19991;-86
2021/12/09 03:30:11;;;;;;;;;;;0.70;14.60;;;;;;4164426;28;20023;-86
2021/12/09 03:32:16;;;;;;;;;;;0.80;14.70;;;;;;4160160;28;19978;-86
2021/12/09 03:34:28;;;;;;;;;;;0.80;15.20;;;;;;4162677;28;19977;-85
2021/12/09 03:36:30;;;;;;;;;;;0.90;15.30;;;;;;4159576;28;19980;-86
2021/12/09 03:38:35;;;;;;;;;;;0.90;16.30;;;;;;4162811;28;20338;-86
2021/12/09 03:40:37;;;;;;;;;;;0.90;16.30;;;;;;4163469;28;20083;-87
2021/12/09 03:42:39;;;;;;;;;;;0.90;16.50;;;;;;4161164;28;20003;-86
2021/12/09 03:44:42;;;;;;;;;;;0.90;17.30;;;;;;4159636;28;20680;-86
2021/12/09 03:46:44;;;;;;;;;;;0.90;18.30;;;;;;4162253;28;19988;-85
2021/12/09 03:48:49;;;;;;;;;;;1.00;22.20;;;;;;4163644;28;19970;-86
2021/12/09 03:50:53;;;;;;;;;;;1.00;22.40;;;;;;4159484;28;19969;-86
2021/12/09 03:52:56;;;;;;;;;;;1.10;23.20;;;;;;4165449;28;19984;-85
2021/12/09 03:54:58;;;;;;;;;;;1.10;23.90;;;;;;4177941;28;19981;-86
2021/12/09 03:57:02;;;;;;;;;;;1.10;24.00;;;;;;4178973;28;20511;-85
2021/12/09 03:59:04;;;;;;;;;;;1.20;25.00;;;;;;4164419;28;19999;-86
2021/12/09 04:01:06;;;;;;;;;;;1.20;26.20;;;;;;4160352;28;19989;-86
2021/12/09 04:03:08;;;;;;;;;;;1.30;28.40;;;;;;4166479;28;20028;-86
2021/12/09 04:05:13;;;;;;;;;;;1.30;29.00;;;;;;4164146;28;19970;-86
2021/12/09 04:07:19;;;;;;;;;;;1.30;33.70;;;;;;4164950;28;19989;-86
2021/12/09 04:09:22;;;;;;;;;;;1.30;35.40;;;;;;4158285;28;19978;-86
2021/12/09 04:11:24;;;;;;;;;;;1.30;38.30;;;;;;4165935;28;20403;-86
2021/12/09 04:13:28;;;;;;;;;;;1.30;39.50;;;;;;4166147;28;19970;-87
2021/12/09 04:15:44;;;;;;;;;;;1.30;40.70;;;;;;4161661;28;19976;-86
2021/12/09 04:17:46;;;;;;;;;;;1.30;42.00;;;;;;4164499;28;19985;-87
2021/12/09 04:19:49;;;;;;;;;;;1.40;43.10;;;;;;4167224;28;19970;-85
2021/12/09 04:22:08;;;;;;;;;;;1.40;43.30;;;;;;4166402;28;20005;-86
2021/12/09 04:24:11;;;;;;;;;;;1.40;43.80;;;;;;4164210;28;20477;-86
2021/12/09 04:26:13;;;;;;;;;;;1.50;45.90;;;;;;4166566;28;19969;-86
2021/12/09 04:28:15;;;;;;;;;;;1.50;46.40;;;;;;4162447;28;19993;-86
2021/12/09 04:30:25;;;;;;;;;;;1.50;46.70;;;;;;4161556;28;20068;-86
2021/12/09 04:32:35;;;;;;;;;;;1.60;47.10;;;;;;4163252;28;20027;-86
2021/12/09 04:34:37;;;;;;;;;;;1.60;47.70;;;;;;4160890;28;19979;-85
2021/12/09 04:36:39;;;;;;;;;;;1.60;49.10;;;;;;4164649;28;19976;-86
2021/12/09 04:38:49;;;;;;;;;;;1.60;49.50;;;;;;4164023;28;19974;-86
2021/12/09 04:40:51;;;;;;;;;;;1.70;50.20;;;;;;4165468;28;20024;-85
2021/12/09 04:42:55;;;;;;;;;;;1.70;50.10;;;;;;4165225;28;20215;-85
2021/12/09 04:45:01;;;;;;;;;;;1.70;49.80;;;;;;4161678;28;19970;-85
2021/12/09 04:47:03;;;;;;;;;;;1.70;50.70;;;;;;4165680;28;20002;-85
2021/12/09 04:49:15;;;;;;;;;;;1.70;50.90;;;;;;4163407;28;19969;-85
2021/12/09 04:51:17;;;;;;;;;;;1.70;52.40;;;;;;4164515;28;19975;-86
2021/12/09 04:53:19;;;;;;;;;;;1.70;54.10;;;;;;4163621;28;19980;-86
2021/12/09 04:55:20;;;;;;;;;;;1.80;52.90;;;;;;4162516;28;19980;-85
2021/12/09 04:57:23;;;;;;;;;;;1.80;53.30;;;;;;4164459;28;20071;-88
2021/12/09 04:59:25;;;;;;;;;;;1.80;53.10;;;;;;4161134;28;19976;-85
2021/12/09 05:01:29;;;;;;;;;;;1.70;53.40;;;;;;4158157;28;20361;-86
2021/12/09 05:03:31;;;;;;;;;;;1.70;53.10;;;;;;4160342;28;19987;-86
2021/12/09 05:05:37;;;;;;;;;;;1.80;53.80;;;;;;4158996;28;19969;-86
2021/12/09 05:07:39;;;;;;;;;;;1.80;52.80;;;;;;4156053;28;19990;-86
2021/12/09 05:09:49;;;;;;;;;;;1.80;52.90;;;;;;4154922;28;20445;-85
2021/12/09 05:12:23;;;;;;;;;;;1.80;52.60;;;;;;4159351;28;19969;-85
2021/12/09 05:14:25;;;;;;;;;;;1.80;52.40;;;;;;4192946;28;19995;-86
2021/12/09 05:16:27;;;;;;;;;;;1.80;52.40;;;;;;4157731;28;19974;-85
2021/12/09 05:18:29;;;;;;;;;;;1.80;52.80;;;;;;4157927;28;19976;-85
2021/12/09 05:20:31;;;;;;;;;;;1.80;53.60;;;;;;4153934;28;19978;-86
2021/12/09 05:22:33;;;;;;;;;;;1.80;53.40;;;;;;4160459;28;19991;-85
2021/12/09 05:24:38;;;;;;;;;;;1.80;53.60;;;;;;4158922;28;19974;-86
2021/12/09 05:26:52;;;;;;;;;;;1.80;53.60;;;;;;4160604;28;19978;-86
2021/12/09 05:28:56;;;;;;;;;;;1.80;52.90;;;;;;4155915;28;20005;-85
2021/12/09 05:33:34;;;;;;;;;;;1.80;54.10;;;;;;4160242;28;19970;-84
2021/12/09 05:35:35;;;;;;;;;;;1.80;52.70;;;;;;4159131;28;19976;-84
2021/12/09 05:37:38;;;;;;;;;;;1.90;52.00;;;;;;4160234;28;19985;-85
2021/12/09 05:39:40;;;;;;;;;;;1.90;52.50;;;;;;4159627;28;19977;-85
2021/12/09 05:41:43;;;;;;;;;;;1.90;52.10;;;;;;4164763;28;19994;-85
2021/12/09 05:43:45;;;;;;;;;;;1.90;51.70;;;;;;4164415;28;19973;-85
2021/12/09 05:46:06;;;;;;;;;;;2.00;52.10;;;;;;4160632;28;19969;-86
2021/12/09 05:48:09;;;;;;;;;;;1.90;52.00;;;;;;4178217;28;19994;-85
2021/12/09 05:50:12;;;;;;;;;;;2.00;51.20;;;;;;4161352;28;19974;-85
2021/12/09 05:52:17;;;;;;;;;;;2.00;51.20;;;;;;4160578;28;19978;-85
2021/12/09 05:54:21;;;;;;;;;;;2.00;51.00;;;;;;4160236;28;19978;-85
2021/12/09 05:56:24;;;;;;;;;;;1.90;51.30;;;;;;4157777;28;19973;-85
2021/12/09 05:58:28;;;;;;;;;;;2.00;51.10;;;;;;4161175;28;20032;-85
2021/12/09 06:00:30;;;;;;;;;;;2.00;51.70;;;;;;4159474;28;20072;-85
2021/12/09 06:02:34;;;;;;;;;;;2.00;51.30;;;;;;4157256;28;19998;-85
2021/12/09 06:04:36;;;;;;;;;;;2.00;51.90;;;;;;4158746;28;20057;-85
2021/12/09 06:06:38;;;;;;;;;;;2.00;52.30;;;;;;4160114;28;20196;-84
2021/12/09 06:08:40;;;;;;;;;;;2.00;51.50;;;;;;4157493;28;19969;-86
2021/12/09 06:10:48;;;;;;;;;;;2.00;52.90;;;;;;4159299;28;20063;-85
2021/12/09 06:13:02;;;;;;;;;;;2.00;53.00;;;;;;4160584;28;19973;-86
2021/12/09 06:15:08;;;;;;;;;;;2.00;53.00;;;;;;4189178;28;19976;-84
2021/12/09 06:17:10;;;;;;;;;;;2.10;53.50;;;;;;4164745;28;20398;-85
2021/12/09 06:19:12;;;;;;;;;;;2.00;54.10;;;;;;4167802;28;19974;-85
2021/12/09 06:21:14;;;;;;;;;;;2.10;55.40;;;;;;4161530;28;20048;-84
2021/12/09 06:23:19;;;;;;;;;;;2.10;55.00;;;;;;4151040;28;19986;-85
2021/12/09 06:25:21;;;;;;;;;;;2.10;54.80;;;;;;4156499;28;20012;-85
2021/12/09 06:27:22;;;;;;;;;;;2.10;55.80;;;;;;4173718;28;20019;-85
2021/12/09 06:29:24;;;;;;;;;;;2.10;55.20;;;;;;4158714;28;20391;-85
2021/12/09 06:31:26;;;;;;;;;;;2.10;54.70;;;;;;4163715;28;19973;-86
2021/12/09 06:33:33;;;;;;;;;;;2.10;54.80;;;;;;4157964;28;19973;-84
2021/12/09 06:35:35;;;;;;;;;;;2.10;55.20;;;;;;4163194;28;20045;-85
2021/12/09 06:37:39;;;;;;;;;;;2.10;54.70;;;;;;4156719;28;19985;-84
2021/12/09 06:39:41;;;;;;;;;;;2.10;55.00;;;;;;4160446;28;19973;-85
2021/12/09 06:41:43;;;;;;;;;;;2.10;56.30;;;;;;4158143;28;19985;-85
2021/12/09 06:43:45;;;;;;;;;;;2.20;55.70;;;;;;4165217;28;20064;-84
2021/12/09 06:45:47;;;;;;;;;;;2.10;56.00;;;;;;4164313;28;19980;-85
2021/12/09 06:47:50;;;;;;;;;;;2.10;55.60;;;;;;4168120;28;19997;-85
2021/12/09 06:49:52;;;;;;;;;;;2.10;55.10;;;;;;4165725;28;19970;-83
2021/12/09 06:51:54;;;;;;;;;;;2.10;55.50;;;;;;4169563;28;19965;-85
2021/12/09 06:54:18;;;;;;;;;;;2.20;55.30;;;;;;4165862;28;19973;-84
2021/12/09 06:56:40;;;;;;;;;;;2.20;55.80;;;;;;4167514;28;20046;-85
2021/12/09 06:58:42;;;;;;;;;;;2.20;56.40;;;;;;4184363;28;20426;-86
2021/12/09 07:00:54;;;;;;;;;;;2.20;55.40;;;;;;4163049;28;19969;-86
2021/12/09 07:03:04;;;;;;;;;;;2.30;55.10;;;;;;4164909;28;20453;-83
2021/12/09 07:05:17;;;;;;;;;;;2.30;53.80;;;;;;4161510;28;19976;-84
2021/12/09 07:07:52;;;;;;;;;;;2.30;53.70;;;;;;4181093;28;19973;-57
2021/12/09 07:09:54;;;;;;;;;;;2.20;51.90;;;;;;4173296;28;20028;-57
2021/12/09 07:11:56;;;;;;;;;;;2.20;52.80;;;;;;4172872;28;20347;-57
2021/12/09 07:13:58;;;;;;;;;;;2.20;52.70;;;;;;4171274;28;19996;-56
2021/12/09 07:16:13;;;;;;;;;;;2.20;52.40;;;;;;4167943;28;20035;-58
2021/12/09 07:18:35;;;;;;;;;;;2.20;52.10;;;;;;4167341;28;19981;-57
2021/12/09 07:21:03;;;;;;;;;;;2.30;51.40;;;;;;4166370;28;20388;-57
2021/12/09 07:23:05;;;;;;;;;;;2.20;51.30;;;;;;4170884;28;20446;-59
2021/12/09 07:25:27;;;;;;;;;;;2.30;51.50;;;;;;4169762;28;19974;-58
2021/12/09 07:27:28;;;;;;;;;;;2.30;51.70;;;;;;4164892;28;19986;-57
2021/12/09 07:29:32;;;;;;;;;;;2.30;50.30;;;;;;4165768;28;19982;-58
2021/12/09 07:31:49;;;;;;;;;;;2.30;50.80;;;;;;4167865;28;20012;-57
2021/12/09 07:33:52;;;;;;;;;;;2.20;51.30;;;;;;4165555;28;19996;-58
2021/12/09 07:36:13;;;;;;;;;;;2.30;51.20;;;;;;4166070;28;19982;-59
2021/12/09 07:38:15;;;;;;;;;;;2.30;51.10;;;;;;4165407;28;19985;-58
2021/12/09 07:40:18;;;;;;;;;;;2.30;51.90;;;;;;4165554;28;19982;-58
2021/12/09 07:42:29;;;;;;;;;;;2.30;50.90;;;;;;4169342;28;20415;-58
2021/12/09 07:44:34;;;;;;;;;;;2.30;51.40;;;;;;4169221;28;20035;-58
2021/12/09 07:46:36;;;;;;;;;;;2.30;51.10;;;;;;4170228;28;20072;-57
2021/12/09 07:48:38;;;;;;;;;;;2.30;50.90;;;;;;4168264;28;19977;-56
2021/12/09 07:50:41;;;;;;;;;;;2.20;51.20;;;;;;4168936;28;20004;-56
2021/12/09 07:52:44;;;;;;;;;;;2.20;51.10;;;;;;4166791;28;20013;-57
2021/12/09 07:54:52;;;;;;;;;;;2.30;51.30;;;;;;4169521;28;20000;-56
2021/12/09 07:56:57;;;;;;;;;;;2.20;51.10;;;;;;4168454;28;20101;-57
2021/12/09 07:58:59;;;;;;;;;;;2.30;52.30;;;;;;4172270;28;20439;-57
2021/12/09 08:01:01;;;;;;;;;;;2.20;50.70;;;;;;4163986;28;19981;-58
2021/12/09 08:03:06;;;;;;;;;;;2.30;51.20;;;;;;4171521;28;20074;-57
2021/12/09 08:05:09;;;;;;;;;;;2.30;52.60;;;;;;4162732;28;19982;-58
2021/12/09 08:07:11;;;;;;;;;;;2.30;51.20;;;;;;4175106;28;19993;-58
2021/12/09 08:09:13;;;;;;;;;;;2.20;51.30;;;;;;4180670;28;19997;-58
2021/12/09 08:11:15;;;;;;;;;;;2.30;51.00;;;;;;4183212;28;19984;-59
2021/12/09 08:13:17;;;;;;;;;;;2.30;51.00;;;;;;4182424;28;19997;-58
2021/12/09 08:15:19;;;;;;;;;;;2.30;50.00;;;;;;4181843;28;20560;-58
2021/12/09 08:19:41;;;;;;;;;;;2.30;47.40;;;;;;4172919;28;19981;-57
2021/12/09 08:21:43;;;;;;;;;;;2.30;45.60;;;;;;4171231;28;20346;-56
2021/12/09 08:23:45;;;;;;;;;;;2.30;45.50;;;;;;4155076;28;20112;-58
2021/12/09 08:25:48;;;;;;;;;;;2.30;44.30;;;;;;4168725;28;19984;-56
2021/12/09 08:27:50;;;;;;;;;;;2.30;42.60;;;;;;4170851;28;20055;-59
2021/12/09 08:29:52;;;;;;;;;;;2.30;40.50;;;;;;4173079;28;19977;-59
2021/12/09 08:31:57;;;;;;;;;;;2.30;41.20;;;;;;4168878;28;19974;-57
2021/12/09 08:34:02;;;;;;;;;;;2.30;41.50;;;;;;4170988;28;20012;-59
2021/12/09 08:36:17;;;;;;;;;;;2.30;40.60;;;;;;4166977;28;19973;-57
2021/12/09 08:38:19;;;;;;;;;;;2.30;39.50;;;;;;4171201;28;19973;-59
2021/12/09 08:40:21;;;;;;;;;;;2.30;40.50;;;;;;4168873;28;19985;-58
2021/12/09 08:42:24;;;;;;;;;;;2.30;41.90;;;;;;4170270;28;19973;-59
2021/12/09 08:44:26;;;;;;;;;;;2.20;42.00;;;;;;4165970;28;19997;-56
2021/12/09 08:46:28;;;;;;;;;;;2.30;42.10;;;;;;4166680;28;20440;-58
2021/12/09 08:48:30;;;;;;;;;;;2.20;43.30;;;;;;4168047;28;19973;-57
2021/12/09 08:50:33;;;;;;;;;;;2.30;43.60;;;;;;4176458;28;19981;-56
2021/12/09 08:52:36;;;;;;;;;;;2.20;42.20;;;;;;4169199;28;20471;-58
2021/12/09 08:54:38;;;;;;;;;;;2.20;44.00;;;;;;4170530;28;20013;-58
2021/12/09 08:56:40;;;;;;;;;;;2.30;44.20;;;;;;4168599;28;20498;-58
2021/12/09 08:58:42;;;;;;;;;;;2.30;43.80;;;;;;4163457;28;20011;-59
2021/12/09 09:00:44;;;;;;;;;;;2.30;45.30;;;;;;4170111;28;20039;-57
2021/12/09 09:02:47;;;;;;;;;;;2.20;44.60;;;;;;4170827;28;20355;-58
2021/12/09 09:04:50;;;;;;;;;;;2.20;45.10;;;;;;4164877;28;20336;-56
2021/12/09 09:06:53;;;;;;;;;;;2.20;45.30;;;;;;4165837;28;20080;-58
2021/12/09 09:08:57;;;;;;;;;;;2.20;45.70;;;;;;4168142;28;20035;-56
2021/12/09 09:11:03;;;;;;;;;;;2.20;46.70;;;;;;4171464;28;20096;-58
2021/12/09 09:13:05;;;;;;;;;;;2.20;47.30;;;;;;4167094;28;20002;-57
2021/12/09 09:15:08;;;;;;;;;;;2.30;47.30;;;;;;4167181;28;20021;-57
2021/12/09 09:17:10;;;;;;;;;;;2.30;47.00;;;;;;4166402;28;19988;-57
2021/12/09 09:19:13;;;;;;;;;;;2.20;46.70;;;;;;4169106;28;19978;-56
2021/12/09 09:21:15;;;;;;;;;;;2.20;47.10;;;;;;4169299;28;19978;-58
2021/12/09 09:23:19;;;;;;;;;;;2.20;46.70;;;;;;4168941;28;19999;-57
2021/12/09 09:25:28;;;;;;;;;;;2.30;47.30;;;;;;4173711;28;20045;-56
2021/12/09 09:27:30;;;;;;;;;;;2.30;47.00;;;;;;4172245;28;19988;-58
2021/12/09 09:29:33;;;;;;;;;;;2.30;47.30;;;;;;4163410;28;20009;-60
2021/12/09 09:31:35;;;;;;;;;;;2.40;46.40;;;;;;4170788;28;19977;-58
2021/12/09 09:33:40;;;;;;;;;;;2.40;48.00;;;;;;4167064;28;19993;-59
2021/12/09 09:35:43;;;;;;;;;;;2.30;46.50;;;;;;4168640;28;19977;-60
2021/12/09 09:37:46;;;;;;;;;;;2.40;46.80;;;;;;4167716;28;19981;-58
2021/12/09 09:39:48;;;;;;;;;;;2.30;47.00;;;;;;4167599;28;19981;-58
2021/12/09 09:42:18;;;;;;;;;;;2.40;46.80;;;;;;4166049;28;19980;-58
2021/12/09 09:44:24;;;;;;;;;;;2.40;46.80;;;;;;4181588;28;20011;-58
2021/12/09 09:46:29;;;;;;;;;;;2.40;46.50;;;;;;4183016;28;19981;-56
2021/12/09 09:48:32;;;;;;;;;;;2.40;46.40;;;;;;4174836;28;20048;-57
2021/12/09 09:50:34;;;;;;;;;;;2.40;46.20;;;;;;4168000;28;20485;-55
2021/12/09 09:52:36;;;;;;;;;;;2.40;46.80;;;;;;4168439;28;20051;-56
2021/12/09 09:54:38;;;;;;;;;;;2.40;46.40;;;;;;4168618;28;20044;-62
2021/12/09 09:56:42;;;;;;;;;;;2.50;45.80;;;;;;4172233;28;20072;-58
2021/12/09 09:59:05;;;;;;;;;;;2.40;45.40;;;;;;4171219;28;20064;-56
2021/12/09 10:01:07;;;;;;;;;;;2.40;45.60;;;;;;4174068;28;19984;-57
2021/12/09 10:03:17;;;;;;;;;;;2.40;45.20;;;;;;4168523;28;20020;-57
2021/12/09 10:05:28;;;;;;;;;;;2.40;44.10;;;;;;4169019;28;19999;-57
2021/12/09 10:07:47;;;;;;;;;;;2.40;43.30;;;;;;4169825;28;20011;-56
2021/12/09 10:09:54;;;;;;;;;;;2.40;43.50;;;;;;4175356;28;19973;-55
2021/12/09 10:11:56;;;;;;;;;;;2.40;42.70;;;;;;4172174;28;20021;-59
2021/12/09 10:14:09;;;;;;;;;;;2.50;43.20;;;;;;4171385;28;19996;-58
2021/12/09 10:16:15;;;;;;;;;;;2.50;37.70;;;;;;4169949;28;19977;-58
2021/12/09 10:18:36;;;;;;;;;;;2.50;38.60;;;;;;4173118;28;20016;-58
2021/12/09 10:20:57;;;;;;;;;;;2.50;38.00;;;;;;4170003;28;20358;-57
2021/12/09 10:22:59;;;;;;;;;;;2.50;37.70;;;;;;4167361;28;19996;-57
2021/12/09 10:25:14;;;;;;;;;;;2.60;38.00;;;;;;4169894;28;20020;-58
2021/12/09 10:27:31;;;;;;;;;;;2.60;35.40;;;;;;4170311;28;19985;-56
2021/12/09 10:29:42;;;;;;;;;;;2.60;34.00;;;;;;4172351;28;20060;-58
2021/12/09 10:31:53;;;;;;;;;;;2.60;34.00;;;;;;4173086;28;20068;-56
2021/12/09 10:36:36;;;;;;;;;;;2.60;33.70;;;;;;4168974;28;19981;-56
2021/12/09 10:38:38;;;;;;;;;;;2.70;33.70;;;;;;4168478;28;19977;-57
2021/12/09 10:40:46;;;;;;;;;;;2.70;29.80;;;;;;4170967;28;20413;-57
2021/12/09 10:42:48;;;;;;;;;;;2.70;29.40;;;;;;4169216;28;19984;-57
2021/12/09 10:45:20;;;;;;;;;;;2.70;28.50;;;;;;4172087;28;19979;-59
2021/12/09 10:47:35;;;;;;;;;;;2.70;28.80;;;;;;4163371;28;20551;-57
2021/12/09 10:49:48;;;;;;;;;;;2.80;28.30;;;;;;4165540;28;19973;-60
2021/12/09 10:51:57;;;;;;;;;;;2.70;23.60;;;;;;4160931;28;20881;-62
2021/12/09 10:53:59;;;;;;;;;;;2.70;23.20;;;;;;4166831;28;20612;-60
2021/12/09 10:56:10;;;;;;;;;;;2.70;24.30;;;;;;4167626;28;19993;-56
2021/12/09 10:58:13;;;;;;;;;;;2.70;23.70;;;;;;4163390;28;19973;-61
2021/12/09 11:00:21;;;;;;;;;;;2.70;23.60;;;;;;4180780;28;20003;-60
2021/12/09 11:02:37;;;;;;;;;;;2.80;23.90;;;;;;4169289;28;20059;-59
2021/12/09 11:04:39;;;;;;;;;;;2.80;23.50;;;;;;4170894;28;19996;-61
2021/12/09 11:06:42;;;;;;;;;;;2.80;23.20;;;;;;4166939;28;19978;-57
2021/12/09 11:09:03;;;;;;;;;;;2.80;22.70;;;;;;4165964;28;20497;-57
2021/12/09 11:11:07;;;;;;;;;;;2.90;21.00;;;;;;4172016;28;19982;-57
2021/12/09 11:13:23;;;;;;;;;;;2.90;19.20;;;;;;4164199;28;20703;-57
2021/12/09 11:15:45;;;;;;;;;;;2.90;18.70;;;;;;4182933;28;19988;-58
2021/12/09 11:17:50;;;;;;;;;;;2.90;17.80;;;;;;4169623;28;20448;-58
2021/12/09 11:19:55;;;;;;;;;;;2.90;15.80;;;;;;4168684;28;19976;-57
2021/12/09 11:22:10;;;;;;;;;;;2.90;16.30;;;;;;4168677;28;20153;-57
2021/12/09 11:24:17;;;;;;;;;;;2.90;16.40;;;;;;4168805;28;19989;-60
2021/12/09 11:26:47;;;;;;;;;;;2.90;17.30;;;;;;4171989;28;20115;-57
2021/12/09 11:29:00;;;;;;;;;;;2.90;16.00;;;;;;4166301;28;19986;-58
2021/12/09 11:31:06;;;;;;;;;;;2.90;16.20;;;;;;4169546;28;20009;-56
2021/12/09 11:33:08;;;;;;;;;;;2.90;16.20;;;;;;4168491;28;19993;-57
2021/12/09 11:35:27;;;;;;;;;;;2.90;16.70;;;;;;4165161;28;20417;-58
2021/12/09 11:37:51;;;;;;;;;;;3.00;16.60;;;;;;4171405;28;19973;-57
2021/12/09 11:40:10;;;;;;;;;;;3.00;16.20;;;;;;4171134;28;19981;-58
2021/12/09 11:42:16;;;;;;;;;;;3.00;15.00;;;;;;4169499;28;20065;-57
2021/12/09 11:44:38;;;;;;;;;;;3.00;15.50;;;;;;4167319;28;20311;-58
2021/12/09 11:47:00;;;;;;;;;;;3.00;16.70;;;;;;4168526;28;20505;-59
2021/12/09 11:49:02;;;;;;;;;;;3.00;15.60;;;;;;4170678;28;19997;-58
2021/12/09 11:51:07;;;;;;;;;;;3.10;13.90;;;;;;4167124;28;19977;-59
2021/12/09 11:53:24;;;;;;;;;;;3.10;14.90;;;;;;4168313;28;20840;-58
2021/12/09 11:55:39;;;;;;;;;;;3.10;13.30;;;;;;4167407;28;19977;-59
2021/12/09 11:57:56;;;;;;;;;;;3.00;12.50;;;;;;4169085;28;19977;-58
2021/12/09 12:12:59;;;;;;;;;;;3.20;13.80;;;;;;4198918;28;19977;-58
2021/12/09 12:15:25;;;;;;;;;;;3.30;12.30;;;;;;4191654;28;19977;-57
2021/12/09 12:17:45;;;;;;;;;;;3.20;8.20;;;;;;4194162;28;20031;-58
2021/12/09 12:19:53;;;;;;;;;;;3.20;8.40;;;;;;4224474;28;20002;-58
2021/12/09 12:22:37;;;;;;;;;;;3.20;9.50;;;;;;4224216;28;19976;-56
2021/12/09 12:25:06;;;;;;;;;;;3.20;10.10;;;;;;4191949;28;20010;-57
2021/12/09 12:27:28;;;;;;;;;;;3.30;10.30;;;;;;4225135;28;19976;-56
2021/12/09 12:37:13;;;;;;;;;;;3.10;8.00;;;;;;4193041;28;20064;-55
2021/12/09 12:39:16;;;;;;;;;;;3.20;8.10;;;;;;4189949;28;19983;-55
2021/12/09 12:41:26;;;;;;;;;;;3.20;7.50;;;;;;4223709;28;20450;-56
2021/12/09 12:43:31;;;;;;;;;;;3.20;7.30;;;;;;4186543;28;20453;-56
2021/12/09 12:47:56;;;;;;;;;;;3.20;7.40;;;;;;4187035;28;20454;-56
2021/12/09 12:50:11;;;;;;;;;;;3.30;6.20;;;;;;4223373;28;19976;-56
2021/12/09 12:52:24;;;;;;;;;;;3.20;5.80;;;;;;4185920;28;19984;-56
2021/12/09 12:54:45;;;;;;;;;;;3.20;6.10;;;;;;4188510;28;20741;-56
2021/12/09 12:56:55;;;;;;;;;;;3.20;6.50;;;;;;4187415;28;19973;-58